Time;durP1;ratioP1;P1;durP2;ratioP2;P2;SDS_P1;SDS_P2;PMS_P1;PMS_P2;Temp;Humidity;BMP_temperature;BMP_pressure;BME280_temperature;BME280_humidity;BME280_pressure;Samples;Min_cycle;Max_cycle;Signal;HPM_P1;HPM_P2
2023/05/05 00:02:24;;;;;;;15.45;9.05;;;13.60;99.90;;;;;;5014100;28;20072;-65
2023/05/05 00:04:49;;;;;;;15.27;9.50;;;13.50;99.90;;;;;;5014676;28;20109;-65
2023/05/05 00:07:15;;;;;;;12.82;8.45;;;13.50;99.90;;;;;;5013925;28;20042;-66
2023/05/05 00:09:41;;;;;;;13.68;8.73;;;13.50;99.90;;;;;;5013872;28;20038;-66
2023/05/05 00:12:07;;;;;;;11.43;8.13;;;13.50;99.90;;;;;;5013495;28;20077;-66
2023/05/05 00:14:32;;;;;;;12.90;8.35;;;13.40;99.90;;;;;;5013802;28;20103;-65
2023/05/05 00:16:58;;;;;;;13.07;8.02;;;13.40;99.90;;;;;;5014328;28;20488;-65
2023/05/05 00:19:23;;;;;;;11.57;7.85;;;13.30;99.90;;;;;;5013964;28;20026;-65
2023/05/05 00:21:49;;;;;;;10.00;7.70;;;13.30;99.90;;;;;;5014247;28;20122;-65
2023/05/05 00:24:15;;;;;;;14.65;8.05;;;13.30;99.90;;;;;;5014206;28;20026;-65
2023/05/05 00:26:40;;;;;;;14.25;8.40;;;13.20;1.00;;;;;;5014091;28;20096;-65
2023/05/05 00:29:06;;;;;;;10.90;8.13;;;13.30;1.00;;;;;;5013897;28;20022;-65
2023/05/05 00:31:31;;;;;;;12.63;8.50;;;13.30;99.90;;;;;;5014142;28;20108;-65
2023/05/05 00:33:57;;;;;;;8.57;7.53;;;13.30;99.90;;;;;;5014063;28;20060;-65
2023/05/05 00:36:22;;;;;;;16.55;8.80;;;13.20;99.90;;;;;;5013765;28;20034;-65
2023/05/05 00:38:48;;;;;;;16.15;8.32;;;13.20;99.90;;;;;;5013607;28;20045;-65
2023/05/05 00:41:13;;;;;;;11.73;8.02;;;13.30;99.90;;;;;;5013752;28;20067;-65
2023/05/05 00:43:39;;;;;;;14.80;8.63;;;13.30;99.90;;;;;;5013766;28;20468;-65
2023/05/05 00:46:17;;;;;;;9.35;7.68;;;13.30;99.90;;;;;;5013649;28;20036;-65
2023/05/05 00:48:43;;;;;;;12.68;8.85;;;13.30;99.90;;;;;;5013544;28;20038;-65
2023/05/05 00:51:09;;;;;;;13.50;8.45;;;13.40;99.90;;;;;;5014006;28;20034;-65
2023/05/05 00:53:35;;;;;;;10.40;8.52;;;13.40;99.90;;;;;;5013288;28;20116;-65
2023/05/05 00:56:01;;;;;;;10.95;7.95;;;13.40;99.90;;;;;;5013697;28;20391;-65
2023/05/05 00:58:28;;;;;;;13.25;8.80;;;13.40;99.90;;;;;;5013879;28;20087;-65
2023/05/05 01:00:54;;;;;;;13.65;7.95;;;13.40;99.90;;;;;;5014062;28;20085;-65
2023/05/05 01:03:19;;;;;;;13.15;8.38;;;13.40;99.90;;;;;;5013318;28;20029;-65
2023/05/05 01:06:03;;;;;;;10.55;8.43;;;13.40;99.90;;;;;;5013309;28;20113;-65
2023/05/05 01:08:42;;;;;;;10.98;8.30;;;13.40;99.90;;;;;;5013567;28;20030;-65
2023/05/05 01:11:19;;;;;;;10.82;8.35;;;13.40;99.90;;;;;;5013233;28;20145;-66
2023/05/05 01:13:54;;;;;;;14.68;8.93;;;13.40;99.90;;;;;;5011643;28;20054;-65
2023/05/05 01:16:25;;;;;;;12.88;8.23;;;13.40;99.90;;;;;;5013772;28;20029;-65
2023/05/05 01:19:31;;;;;;;11.52;8.20;;;13.40;99.90;;;;;;5013168;28;20060;-65
2023/05/05 01:22:00;;;;;;;13.00;8.45;;;13.40;99.90;;;;;;5016614;28;20399;-65
2023/05/05 01:24:55;;;;;;;12.75;9.20;;;13.40;99.90;;;;;;5016812;28;20054;-65
2023/05/05 01:27:47;;;;;;;11.68;8.40;;;13.40;99.90;;;;;;5015420;28;20080;-65
2023/05/05 01:30:52;;;;;;;10.27;7.65;;;13.40;99.90;;;;;;5016224;28;20480;-65
2023/05/05 01:33:24;;;;;;;12.23;7.90;;;13.30;99.90;;;;;;5016234;28;20034;-65
2023/05/05 01:35:54;;;;;;;12.02;7.90;;;13.30;99.90;;;;;;5017033;28;20372;-65
2023/05/05 01:38:25;;;;;;;11.75;8.90;;;13.30;99.90;;;;;;5016077;28;20456;-65
2023/05/05 01:41:03;;;;;;;11.30;8.75;;;13.30;99.90;;;;;;5016550;28;20076;-65
2023/05/05 01:43:33;;;;;;;10.90;8.73;;;13.30;99.90;;;;;;5016573;28;20057;-65
2023/05/05 01:46:00;;;;;;;9.45;8.27;;;13.20;99.90;;;;;;5016269;28;20050;-65
2023/05/05 01:48:28;;;;;;;10.80;8.68;;;13.20;1.00;;;;;;5016422;28;20029;-65
2023/05/05 01:50:54;;;;;;;10.35;8.68;;;13.10;1.00;;;;;;5016455;28;20361;-65
2023/05/05 01:53:21;;;;;;;12.45;9.05;;;13.10;1.00;;;;;;5016644;28;20029;-65
2023/05/05 01:55:49;;;;;;;10.75;8.02;;;13.10;1.00;;;;;;5015558;28;20026;-65
2023/05/05 01:58:15;;;;;;;10.80;8.60;;;13.10;1.00;;;;;;5016637;28;20026;-65
2023/05/05 02:00:42;;;;;;;13.25;9.10;;;13.10;1.00;;;;;;5015990;28;20541;-65
2023/05/05 02:03:11;;;;;;;14.25;9.20;;;13.10;1.00;;;;;;5016519;28;20436;-65
2023/05/05 02:05:38;;;;;;;12.63;9.60;;;13.00;1.00;;;;;;5015906;28;20121;-65
2023/05/05 02:08:05;;;;;;;17.52;9.27;;;13.10;1.00;;;;;;5016165;28;20495;-65
2023/05/05 02:10:31;;;;;;;11.48;9.15;;;13.00;51.30;;;;;;5016136;28;20088;-65
2023/05/05 02:13:01;;;;;;;12.98;9.45;;;13.00;93.80;;;;;;5015615;28;20408;-65
2023/05/05 02:15:28;;;;;;;14.38;9.85;;;12.90;99.90;;;;;;5016032;28;20029;-65
2023/05/05 02:17:54;;;;;;;13.60;9.82;;;12.80;99.90;;;;;;5016094;28;20026;-65
2023/05/05 02:20:21;;;;;;;10.40;9.05;;;12.80;99.90;;;;;;5016368;28;20474;-65
2023/05/05 02:22:46;;;;;;;13.30;9.65;;;12.70;99.90;;;;;;5015004;28;20030;-65
2023/05/05 02:25:12;;;;;;;12.50;9.02;;;12.70;99.90;;;;;;5015803;28;20061;-65
2023/05/05 02:27:41;;;;;;;13.38;9.23;;;12.80;99.90;;;;;;5016048;28;20034;-65
2023/05/05 02:30:12;;;;;;;12.93;9.18;;;12.80;99.90;;;;;;5015754;28;20030;-65
2023/05/05 02:32:41;;;;;;;18.90;9.85;;;12.80;99.90;;;;;;5015921;28;20368;-65
2023/05/05 02:35:13;;;;;;;14.70;9.43;;;12.80;99.90;;;;;;5015380;28;20050;-65
2023/05/05 02:37:42;;;;;;;15.80;10.00;;;12.80;99.90;;;;;;5015894;28;20026;-65
2023/05/05 02:40:09;;;;;;;15.68;9.00;;;12.70;99.90;;;;;;5015551;28;20452;-65
2023/05/05 02:42:39;;;;;;;16.17;10.20;;;12.70;99.90;;;;;;5015744;28;20033;-65
2023/05/05 02:45:11;;;;;;;14.43;9.63;;;12.70;99.90;;;;;;5014572;28;20030;-65
2023/05/05 02:47:37;;;;;;;13.02;9.60;;;12.70;99.90;;;;;;5015109;28;20476;-65
2023/05/05 02:50:04;;;;;;;13.55;9.93;;;12.70;99.90;;;;;;5015595;28;20022;-65
2023/05/05 02:52:30;;;;;;;11.32;8.65;;;12.70;99.90;;;;;;5015241;28;20101;-65
2023/05/05 02:54:57;;;;;;;11.88;9.00;;;12.60;1.00;;;;;;5015005;28;20042;-65
2023/05/05 02:57:33;;;;;;;13.10;9.55;;;12.60;1.00;;;;;;5015190;28;20384;-67
2023/05/05 03:00:12;;;;;;;13.27;9.23;;;12.60;1.00;;;;;;5014353;28;20461;-65
2023/05/05 03:02:44;;;;;;;12.70;10.32;;;12.60;1.00;;;;;;5015319;28;20080;-65
2023/05/05 03:05:16;;;;;;;15.13;9.82;;;12.60;1.00;;;;;;5014840;28;20029;-65
2023/05/05 03:07:52;;;;;;;13.50;9.30;;;12.50;1.00;;;;;;5014819;28;20053;-65
2023/05/05 03:10:24;;;;;;;16.80;10.68;;;12.50;1.00;;;;;;5015203;28;20032;-65
2023/05/05 03:12:56;;;;;;;13.35;10.07;;;12.50;1.00;;;;;;5014416;28;20046;-65
2023/05/05 03:15:26;;;;;;;13.60;10.88;;;12.50;1.00;;;;;;5015193;28;20022;-65
2023/05/05 03:17:52;;;;;;;15.38;10.85;;;12.50;1.00;;;;;;5014573;28;20052;-65
2023/05/05 03:20:20;;;;;;;14.25;11.50;;;12.50;1.00;;;;;;5014591;28;20099;-65
2023/05/05 03:22:46;;;;;;;15.65;10.57;;;12.50;1.00;;;;;;5014765;28;20353;-65
2023/05/05 03:25:12;;;;;;;15.18;10.45;;;12.60;1.00;;;;;;5014678;28;20112;-65
2023/05/05 03:27:37;;;;;;;17.75;10.95;;;12.60;1.00;;;;;;5014390;28;20425;-65
2023/05/05 03:30:03;;;;;;;19.15;10.88;;;12.60;1.00;;;;;;5014593;28;20484;-65
2023/05/05 03:32:29;;;;;;;16.70;10.23;;;12.60;1.00;;;;;;5014834;28;20381;-65
2023/05/05 03:34:55;;;;;;;14.63;10.45;;;12.60;1.00;;;;;;5014283;28;20022;-65
2023/05/05 03:37:20;;;;;;;14.55;10.60;;;12.70;1.00;;;;;;5014241;28;20036;-65
2023/05/05 03:39:46;;;;;;;13.82;10.57;;;12.70;1.00;;;;;;5014210;28;20026;-65
2023/05/05 03:42:12;;;;;;;15.48;10.50;;;12.70;1.00;;;;;;5014420;28;20034;-66
2023/05/05 03:44:37;;;;;;;15.00;11.00;;;12.70;1.00;;;;;;5014086;28;20121;-65
2023/05/05 03:47:03;;;;;;;15.82;9.90;;;12.60;1.00;;;;;;5014121;28;20076;-65
2023/05/05 03:49:28;;;;;;;13.18;9.80;;;12.60;1.00;;;;;;5014632;28;20361;-65
2023/05/05 03:51:54;;;;;;;12.07;9.68;;;12.60;1.00;;;;;;5014038;28;20021;-65
2023/05/05 03:54:19;;;;;;;14.25;10.55;;;12.70;1.00;;;;;;5014508;28;20076;-65
2023/05/05 03:56:45;;;;;;;15.27;10.60;;;12.70;1.00;;;;;;5013975;28;20026;-65
2023/05/05 03:59:10;;;;;;;13.02;10.32;;;12.70;1.00;;;;;;5013917;28;20026;-65
2023/05/05 04:01:36;;;;;;;15.30;10.63;;;12.70;1.00;;;;;;5013882;28;20049;-65
2023/05/05 04:04:02;;;;;;;14.90;10.68;;;12.60;1.00;;;;;;5013894;28;20025;-65
2023/05/05 04:06:27;;;;;;;15.82;11.02;;;12.50;1.00;;;;;;5013869;28;20431;-65
2023/05/05 04:08:53;;;;;;;12.93;11.10;;;12.50;1.00;;;;;;5013990;28;20489;-65
2023/05/05 04:11:20;;;;;;;13.80;10.30;;;12.50;1.00;;;;;;5014056;28;20045;-65
2023/05/05 04:13:45;;;;;;;12.85;10.30;;;12.50;1.00;;;;;;5012165;28;20041;-64
2023/05/05 04:16:11;;;;;;;14.88;10.73;;;12.50;1.00;;;;;;5013759;28;20418;-64
2023/05/05 04:18:36;;;;;;;13.65;10.30;;;12.40;1.00;;;;;;5013847;28;20384;-65
2023/05/05 04:21:02;;;;;;;14.63;10.60;;;12.40;1.00;;;;;;5014284;28;20114;-65
2023/05/05 04:23:27;;;;;;;13.40;10.45;;;12.50;1.00;;;;;;5013677;28;20144;-65
2023/05/05 04:25:53;;;;;;;12.88;10.27;;;12.40;1.00;;;;;;5014181;28;20022;-65
2023/05/05 04:28:19;;;;;;;12.90;10.35;;;12.40;1.00;;;;;;5014230;28;20029;-65
2023/05/05 04:30:45;;;;;;;15.15;11.68;;;12.40;1.00;;;;;;5013899;28;20040;-65
2023/05/05 04:33:11;;;;;;;18.02;11.68;;;12.40;1.00;;;;;;5014115;28;20057;-65
2023/05/05 04:35:36;;;;;;;17.30;12.00;;;12.40;1.00;;;;;;5014151;28;20449;-65
2023/05/05 04:38:02;;;;;;;14.63;11.45;;;12.40;1.00;;;;;;5013396;28;20026;-65
2023/05/05 04:40:27;;;;;;;13.80;11.48;;;12.40;1.00;;;;;;5013610;28;20534;-65
2023/05/05 04:42:53;;;;;;;17.63;11.93;;;12.40;1.00;;;;;;5014074;28;20104;-65
2023/05/05 04:45:19;;;;;;;16.65;12.38;;;12.50;1.00;;;;;;5014057;28;20433;-65
2023/05/05 04:47:45;;;;;;;18.13;12.85;;;12.60;1.00;;;;;;5013214;28;20036;-65
2023/05/05 04:50:10;;;;;;;21.33;13.43;;;12.70;1.00;;;;;;5013471;28;20476;-65
2023/05/05 04:52:36;;;;;;;28.42;13.60;;;12.90;1.00;;;;;;5013530;28;20026;-65
2023/05/05 04:55:03;;;;;;;20.02;13.32;;;13.00;1.00;;;;;;5014886;28;20587;-65
2023/05/05 04:57:29;;;;;;;22.15;13.88;;;13.20;1.00;;;;;;5017235;28;20468;-65
2023/05/05 04:59:55;;;;;;;24.63;14.07;;;13.50;1.00;;;;;;5017741;28;20102;-65
2023/05/05 05:02:20;;;;;;;25.17;14.70;;;13.70;1.00;;;;;;5017431;28;20150;-65
2023/05/05 05:04:46;;;;;;;33.72;15.55;;;13.80;1.00;;;;;;5017355;28;20030;-65
2023/05/05 05:07:13;;;;;;;26.33;15.32;;;14.00;1.00;;;;;;5017621;28;20033;-65
2023/05/05 05:09:39;;;;;;;26.98;14.73;;;14.10;1.00;;;;;;5017014;28;20389;-65
2023/05/05 05:12:06;;;;;;;20.65;15.38;;;14.30;1.00;;;;;;5017214;28;20049;-65
2023/05/05 05:14:36;;;;;;;23.20;16.67;;;14.50;1.00;;;;;;5017363;28;20034;-65
2023/05/05 05:17:02;;;;;;;25.92;16.73;;;14.70;1.00;;;;;;5017299;28;20033;-65
2023/05/05 05:19:28;;;;;;;24.45;16.73;;;14.80;1.00;;;;;;5017354;28;20026;-65
2023/05/05 05:21:53;;;;;;;22.38;16.45;;;15.00;1.00;;;;;;5016061;28;20022;-65
2023/05/05 05:24:19;;;;;;;25.15;16.85;;;15.10;1.00;;;;;;5017252;28;20065;-65
2023/05/05 05:26:44;;;;;;;27.77;17.48;;;15.20;1.00;;;;;;5016642;28;20135;-65
2023/05/05 05:29:10;;;;;;;28.17;16.95;;;15.30;1.00;;;;;;5016605;28;20365;-65
2023/05/05 05:31:35;;;;;;;29.73;17.67;;;15.50;1.00;;;;;;5016840;28;20022;-66
2023/05/05 05:34:01;;;;;;;26.08;17.52;;;15.50;1.00;;;;;;5016726;28;20053;-66
2023/05/05 05:36:26;;;;;;;26.92;17.38;;;15.60;1.00;;;;;;5016754;28;20065;-66
2023/05/05 05:38:52;;;;;;;25.80;16.25;;;15.80;1.00;;;;;;5016742;28;20379;-66
2023/05/05 05:41:17;;;;;;;30.92;18.63;;;15.90;1.00;;;;;;5016382;28;20033;-66
2023/05/05 05:43:43;;;;;;;25.20;17.73;;;16.00;1.00;;;;;;5016585;28;20426;-66
2023/05/05 05:46:09;;;;;;;32.75;18.92;;;16.10;1.00;;;;;;5016829;28;20030;-66
2023/05/05 05:48:34;;;;;;;25.45;17.73;;;16.20;1.00;;;;;;5016212;28;20049;-66
2023/05/05 05:51:01;;;;;;;31.55;18.20;;;16.20;1.00;;;;;;5016505;28;20040;-66
2023/05/05 05:53:26;;;;;;;32.08;18.52;;;16.40;1.00;;;;;;5016629;28;20030;-66
2023/05/05 05:55:52;;;;;;;33.45;19.63;;;16.30;1.00;;;;;;5016105;28;20114;-66
2023/05/05 05:58:18;;;;;;;27.25;18.90;;;16.40;1.00;;;;;;5016095;28;20476;-66
2023/05/05 06:00:43;;;;;;;28.45;19.38;;;16.50;1.00;;;;;;5016012;28;20084;-66
2023/05/05 06:03:09;;;;;;;28.80;19.05;;;16.50;1.00;;;;;;5016763;28;20033;-66
2023/05/05 06:05:34;;;;;;;33.42;19.60;;;16.50;1.00;;;;;;5015757;28;20038;-67
2023/05/05 06:08:00;;;;;;;29.23;18.20;;;16.60;1.00;;;;;;5016357;28;20030;-66
2023/05/05 06:10:26;;;;;;;28.92;20.58;;;16.70;1.00;;;;;;5015556;28;20030;-66
2023/05/05 06:12:52;;;;;;;28.55;20.63;;;16.70;1.00;;;;;;5015390;28;20526;-66
2023/05/05 06:15:17;;;;;;;27.08;19.33;;;16.70;99.90;;;;;;5015386;28;20026;-66
2023/05/05 06:17:43;;;;;;;25.27;19.77;;;16.80;99.90;;;;;;5015951;28;20434;-65
2023/05/05 06:20:09;;;;;;;31.23;20.67;;;17.00;99.90;;;;;;5015348;28;20487;-65
2023/05/05 06:22:35;;;;;;;30.35;20.50;;;17.10;99.90;;;;;;5015564;28;20030;-65
2023/05/05 06:25:00;;;;;;;25.50;20.23;;;17.20;99.90;;;;;;5015403;28;20364;-65
2023/05/05 06:27:26;;;;;;;28.35;20.10;;;17.60;99.90;;;;;;5015083;28;20028;-65
2023/05/05 06:29:51;;;;;;;26.73;17.80;;;18.40;1.00;;;;;;5014174;28;20040;-65
2023/05/05 06:32:17;;;;;;;32.47;20.55;;;19.20;99.90;;;;;;5026521;28;20029;-67
2023/05/05 06:34:43;;;;;;;26.05;19.23;;;19.50;99.90;;;;;;5034856;28;20076;-67
2023/05/05 06:37:09;;;;;;;28.83;19.92;;;19.90;1.00;;;;;;5038901;28;20075;-65
2023/05/05 06:39:35;;;;;;;24.08;19.40;;;19.90;99.90;;;;;;5029180;28;20026;-66
2023/05/05 06:42:00;;;;;;;25.67;19.50;;;20.10;99.90;;;;;;5047852;28;20033;-66
2023/05/05 06:44:27;;;;;;;26.65;18.33;;;19.80;99.90;;;;;;5037230;28;20547;-63
2023/05/05 06:46:53;;;;;;;24.35;19.25;;;19.70;99.90;;;;;;5046983;28;20090;-63
2023/05/05 06:49:18;;;;;;;25.35;19.20;;;20.00;1.00;;;;;;5054817;28;20033;-64
2023/05/05 06:51:44;;;;;;;48.38;20.30;;;20.30;1.00;;;;;;5050650;28;20045;-65
2023/05/05 06:54:09;;;;;;;24.75;18.35;;;21.30;99.90;;;;;;5050562;28;20029;-64
2023/05/05 06:56:35;;;;;;;23.25;16.95;;;21.50;99.90;;;;;;5032426;28;20029;-64
2023/05/05 06:59:00;;;;;;;23.23;17.00;;;22.00;1.00;;;;;;5033168;28;20109;-64
2023/05/05 07:01:26;;;;;;;60.20;19.35;;;22.60;99.90;;;;;;5043878;28;20386;-64
2023/05/05 07:03:51;;;;;;;23.27;16.65;;;22.10;1.00;;;;;;5054568;28;20043;-64
2023/05/05 07:06:17;;;;;;;22.13;16.00;;;21.90;1.00;;;;;;5040812;28;20037;-66
2023/05/05 07:08:42;;;;;;;18.52;15.40;;;21.50;3.50;;;;;;5045554;28;20025;-64
2023/05/05 07:11:08;;;;;;;19.77;14.73;;;21.70;1.00;;;;;;5034141;28;20021;-63
2023/05/05 07:13:33;;;;;;;18.67;14.02;;;20.80;69.70;;;;;;5033956;28;20045;-64
2023/05/05 07:15:59;;;;;;;16.80;13.30;;;20.70;99.90;;;;;;5033685;28;20029;-64
2023/05/05 07:18:24;;;;;;;22.10;13.05;;;20.50;99.90;;;;;;5032771;28;20076;-64
2023/05/05 07:20:50;;;;;;;13.98;12.27;;;21.10;59.20;;;;;;5034746;28;20061;-64
2023/05/05 07:23:16;;;;;;;18.77;13.30;;;21.50;1.00;;;;;;5034064;28;20108;-63
2023/05/05 07:25:41;;;;;;;14.35;12.85;;;21.70;1.00;;;;;;5034761;28;20246;-64
2023/05/05 07:28:07;;;;;;;13.07;11.25;;;22.00;99.90;;;;;;5034106;28;20028;-64
2023/05/05 07:30:32;;;;;;;17.55;11.55;;;22.30;99.90;;;;;;5034633;28;20029;-64
2023/05/05 07:32:58;;;;;;;13.38;11.48;;;22.60;99.90;;;;;;5034497;28;20034;-64
2023/05/05 07:35:23;;;;;;;13.98;10.45;;;22.60;1.00;;;;;;5034405;28;20022;-64
2023/05/05 07:37:49;;;;;;;13.05;10.75;;;22.70;1.00;;;;;;5032856;28;20021;-64
2023/05/05 07:40:15;;;;;;;11.93;9.85;;;23.20;99.90;;;;;;5033808;28;20053;-64
2023/05/05 07:42:40;;;;;;;13.27;10.82;;;22.90;99.90;;;;;;5033506;28;20064;-64
2023/05/05 07:45:06;;;;;;;14.10;10.27;;;22.60;99.90;;;;;;5033687;28;20382;-64
2023/05/05 07:47:32;;;;;;;10.52;9.10;;;22.60;1.00;;;;;;5034291;28;20037;-63
2023/05/05 07:49:57;;;;;;;12.27;10.93;;;23.00;99.90;;;;;;5032496;28;20112;-63
2023/05/05 07:52:23;;;;;;;13.40;10.15;;;22.90;99.90;;;;;;5033354;28;20060;-63
2023/05/05 07:54:49;;;;;;;12.65;9.93;;;23.50;99.90;;;;;;5034251;28;20071;-63
2023/05/05 07:57:15;;;;;;;12.98;10.70;;;22.60;99.90;;;;;;5033666;28;20064;-63
2023/05/05 07:59:42;;;;;;;13.13;10.60;;;22.60;99.90;;;;;;5034153;28;20021;-64
2023/05/05 08:02:11;;;;;;;11.23;9.68;;;22.20;99.90;;;;;;5032472;28;20395;-64
2023/05/05 08:04:38;;;;;;;14.35;9.85;;;22.90;99.90;;;;;;5032657;28;20498;-63
2023/05/05 08:07:03;;;;;;;13.75;9.80;;;23.40;99.90;;;;;;5033159;28;20025;-63
2023/05/05 08:09:29;;;;;;;14.18;10.27;;;23.50;99.90;;;;;;5033944;28;20025;-63
2023/05/05 08:11:54;;;;;;;11.95;10.30;;;22.60;99.90;;;;;;5032857;28;20045;-63
2023/05/05 08:14:20;;;;;;;11.68;10.05;;;22.10;99.90;;;;;;5033234;28;20033;-63
2023/05/05 08:16:45;;;;;;;11.18;9.95;;;22.00;99.90;;;;;;5033320;28;20030;-63
2023/05/05 08:19:11;;;;;;;11.85;10.57;;;22.30;99.90;;;;;;5033394;28;20471;-63
2023/05/05 08:21:36;;;;;;;10.82;9.68;;;22.40;99.90;;;;;;5033311;28;20021;-63
2023/05/05 08:24:02;;;;;;;11.27;8.88;;;23.00;99.90;;;;;;5033887;28;20030;-63
2023/05/05 08:26:27;;;;;;;11.63;10.05;;;23.60;99.90;;;;;;5033221;28;20049;-63
2023/05/05 08:28:55;;;;;;;11.82;9.95;;;23.40;99.90;;;;;;5034286;28;20029;-63
2023/05/05 08:31:21;;;;;;;11.55;9.00;;;23.80;99.90;;;;;;5037964;28;20032;-63
2023/05/05 08:33:46;;;;;;;10.25;9.25;;;23.70;97.40;;;;;;5037524;28;20116;-63
2023/05/05 08:36:12;;;;;;;10.00;8.40;;;23.40;99.90;;;;;;5037900;28;20379;-63
2023/05/05 08:38:38;;;;;;;10.75;8.55;;;23.40;78.90;;;;;;5038060;28;20419;-64
2023/05/05 08:41:07;;;;;;;11.20;9.18;;;23.80;16.40;;;;;;5036021;28;20053;-63
2023/05/05 08:43:33;;;;;;;8.13;7.35;;;23.80;1.00;;;;;;5037005;28;20514;-63
2023/05/05 08:45:59;;;;;;;11.98;8.38;;;23.70;1.00;;;;;;5036834;28;20176;-63
2023/05/05 08:48:27;;;;;;;10.88;8.15;;;23.60;1.00;;;;;;5037598;28;20436;-63
2023/05/05 08:50:58;;;;;;;9.13;7.25;;;22.70;9.40;;;;;;5037076;28;20072;-64
2023/05/05 08:53:55;;;;;;;10.60;8.88;;;23.20;38.30;;;;;;5035759;28;20033;-64
2023/05/05 08:56:21;;;;;;;12.45;8.40;;;22.80;57.00;;;;;;5036952;28;20029;-63
2023/05/05 08:58:47;;;;;;;12.32;9.70;;;23.20;39.70;;;;;;5036368;28;20029;-63
2023/05/05 09:01:14;;;;;;;10.60;9.10;;;23.30;1.00;;;;;;5035653;28;20085;-63
2023/05/05 09:03:39;;;;;;;10.93;9.15;;;23.40;43.10;;;;;;5036034;28;20025;-63
2023/05/05 09:06:06;;;;;;;10.70;8.95;;;23.90;1.00;;;;;;5036648;28;20026;-63
2023/05/05 09:08:32;;;;;;;14.43;9.27;;;23.80;1.00;;;;;;5037222;28;20029;-63
2023/05/05 09:10:59;;;;;;;11.02;9.05;;;;;;;;;;5036635;28;20104;-63
2023/05/05 09:13:25;;;;;;;9.50;8.50;;;;;;;;;;5036094;28;20073;-63
2023/05/05 09:15:51;;;;;;;9.73;8.68;;;25.10;1.00;;;;;;5036549;28;20032;-63
2023/05/05 09:18:16;;;;;;;10.80;8.20;;;25.20;1.00;;;;;;5036786;28;20395;-63
2023/05/05 09:20:42;;;;;;;9.88;8.88;;;24.90;1.00;;;;;;5036918;28;20158;-63
2023/05/05 09:23:17;;;;;;;10.27;8.80;;;25.10;1.00;;;;;;5036520;28;20109;-63
2023/05/05 09:25:45;;;;;;;10.38;9.02;;;25.10;1.00;;;;;;5036789;28;20493;-63
2023/05/05 09:28:13;;;;;;;10.05;8.45;;;25.60;99.90;;;;;;5018898;28;20108;-63
2023/05/05 09:30:41;;;;;;;8.70;7.78;;;25.60;99.90;;;;;;5036424;28;20112;-64
2023/05/05 09:33:07;;;;;;;10.63;7.85;;;25.30;99.90;;;;;;5034871;28;20387;-64
2023/05/05 09:35:53;;;;;;;9.32;7.22;;;24.70;99.90;;;;;;5019127;28;20033;-63
2023/05/05 09:38:19;;;;;;;12.75;8.60;;;24.90;99.90;;;;;;5018688;28;20469;-64
2023/05/05 09:40:48;;;;;;;10.70;8.05;;;25.30;99.90;;;;;;5035360;28;20048;-63
2023/05/05 09:43:15;;;;;;;7.45;5.30;;;25.50;99.90;;;;;;5034846;28;20029;-63
2023/05/05 09:45:40;;;;;;;6.35;5.45;;;25.00;99.90;;;;;;5034624;28;20108;-63
2023/05/05 09:48:06;;;;;;;7.45;5.20;;;25.50;99.90;;;;;;5035936;28;20107;-63
2023/05/05 09:50:47;;;;;;;7.55;4.95;;;25.40;99.90;;;;;;5036205;28;20111;-63
2023/05/05 09:53:12;;;;;;;5.53;5.03;;;25.80;99.90;;;;;;5035792;28;20040;-64
2023/05/05 09:55:38;;;;;;;6.55;5.38;;;26.00;99.90;;;;;;5036262;28;20384;-63
2023/05/05 09:58:22;;;;;;;6.70;4.80;;;25.50;99.90;;;;;;5035693;28;20377;-64
2023/05/05 10:00:48;;;;;;;8.27;4.47;;;25.20;99.90;;;;;;5034586;28;20021;-63
2023/05/05 10:03:14;;;;;;;7.05;4.13;;;25.20;99.90;;;;;;5034196;28;20368;-63
2023/05/05 10:05:52;;;;;;;4.85;4.05;;;25.10;99.90;;;;;;5035604;28;20034;-63
2023/05/05 10:08:20;;;;;;;9.25;5.80;;;24.80;99.90;;;;;;5035217;28;20080;-63
2023/05/05 10:10:50;;;;;;;5.22;4.72;;;24.40;99.90;;;;;;5035452;28;20064;-63
2023/05/05 10:13:19;;;;;;;8.20;5.47;;;24.90;99.90;;;;;;5033838;28;20056;-63
2023/05/05 10:15:47;;;;;;;9.93;6.40;;;25.00;99.90;;;;;;5034537;28;20041;-63
2023/05/05 10:18:17;;;;;;;9.02;6.15;;;25.50;99.90;;;;;;5034769;28;20068;-63
2023/05/05 10:20:47;;;;;;;9.90;6.00;;;25.50;99.90;;;;;;5033692;28;20117;-63
2023/05/05 10:23:17;;;;;;;13.40;6.03;;;25.20;99.90;;;;;;5035354;28;20064;-63
2023/05/05 10:25:51;;;;;;;7.13;4.80;;;25.50;99.90;;;;;;5035709;28;20168;-63
2023/05/05 10:28:27;;;;;;;8.45;5.82;;;25.80;99.90;;;;;;5035664;28;20391;-63
2023/05/05 10:30:57;;;;;;;7.25;5.82;;;26.20;99.90;;;;;;5035372;28;20029;-63
2023/05/05 10:33:37;;;;;;;9.23;7.57;;;25.80;99.90;;;;;;5035612;28;20033;-63
2023/05/05 10:36:05;;;;;;;10.20;8.60;;;25.70;99.90;;;;;;5034582;28;20022;-63
2023/05/05 10:38:32;;;;;;;10.32;8.30;;;25.20;99.90;;;;;;5033901;28;20080;-64
2023/05/05 10:40:59;;;;;;;10.48;7.30;;;25.10;99.90;;;;;;5033791;28;20022;-66
2023/05/05 10:43:26;;;;;;;12.00;7.93;;;25.20;99.90;;;;;;5033581;28;20025;-64
2023/05/05 10:45:52;;;;;;;8.82;7.60;;;24.20;99.90;;;;;;5031148;28;20108;-64
2023/05/05 10:48:26;;;;;;;8.05;7.18;;;23.90;99.90;;;;;;5037085;28;20060;-64
2023/05/05 10:51:00;;;;;;;13.30;9.15;;;24.10;99.90;;;;;;5030900;28;20030;-64
2023/05/05 10:53:33;;;;;;;12.40;9.35;;;24.40;99.90;;;;;;5033891;28;20028;-64
2023/05/05 10:56:24;;;;;;;11.68;8.80;;;24.00;99.90;;;;;;5034020;28;20025;-66
2023/05/05 10:58:49;;;;;;;10.57;8.35;;;23.80;99.90;;;;;;5053647;28;20120;-64
2023/05/05 11:01:28;;;;;;;10.63;7.05;;;23.70;99.90;;;;;;5044686;28;20535;-64
2023/05/05 11:04:15;;;;;;;11.70;8.45;;;24.40;99.90;;;;;;5049635;28;20482;-64
2023/05/05 11:06:57;;;;;;;12.32;8.57;;;23.80;99.90;;;;;;5034633;28;20033;-64
2023/05/05 11:09:27;;;;;;;10.63;8.48;;;24.00;99.90;;;;;;5033197;28;20419;-64
2023/05/05 11:12:08;;;;;;;11.95;8.38;;;23.80;99.90;;;;;;5035034;28;20088;-64
2023/05/05 11:14:34;;;;;;;10.88;7.78;;;23.30;99.90;;;;;;5042359;28;20029;-64
2023/05/05 11:17:00;;;;;;;9.93;6.43;;;23.20;99.90;;;;;;5031672;28;20068;-64
2023/05/05 11:19:47;;;;;;;9.13;6.60;;;23.20;99.90;;;;;;5034087;28;20061;-64
2023/05/05 11:22:12;;;;;;;7.90;7.10;;;23.50;99.90;;;;;;5040639;28;20025;-64
2023/05/05 11:24:38;;;;;;;9.63;7.18;;;23.80;99.90;;;;;;5035706;28;20368;-64
2023/05/05 11:27:05;;;;;;;9.32;7.00;;;24.10;99.90;;;;;;5038122;28;20025;-64
2023/05/05 11:30:06;;;;;;;8.93;6.30;;;23.40;99.90;;;;;;5029403;28;20426;-64
2023/05/05 11:32:32;;;;;;;8.63;5.93;;;23.20;99.90;;;;;;5026950;28;20390;-64
2023/05/05 11:34:59;;;;;;;7.45;5.80;;;23.20;99.90;;;;;;5033834;28;20509;-64
2023/05/05 11:37:26;;;;;;;6.32;5.38;;;23.70;99.90;;;;;;5033618;28;20360;-64
2023/05/05 11:40:20;;;;;;;6.18;5.28;;;24.50;99.90;;;;;;5033803;28;20418;-64
2023/05/05 11:42:45;;;;;;;9.35;6.00;;;24.70;99.90;;;;;;5032755;28;20483;-63
2023/05/05 11:45:20;;;;;;;9.23;6.70;;;24.50;99.90;;;;;;5034214;28;20037;-63
2023/05/05 11:47:46;;;;;;;7.10;6.30;;;24.40;99.90;;;;;;5033719;28;20108;-63
2023/05/05 11:50:16;;;;;;;6.75;5.97;;;24.40;99.90;;;;;;5034278;28;20120;-63
2023/05/05 11:52:41;;;;;;;8.38;6.15;;;23.80;99.90;;;;;;5032340;28;20026;-65
2023/05/05 11:55:07;;;;;;;7.88;6.30;;;23.50;99.90;;;;;;5034159;28;20032;-64
2023/05/05 11:57:33;;;;;;;6.88;5.53;;;23.60;99.90;;;;;;5033640;28;20487;-64
2023/05/05 12:00:02;;;;;;;8.25;5.00;;;23.70;99.90;;;;;;5033666;28;20049;-64
2023/05/05 12:02:28;;;;;;;6.22;4.40;;;23.50;99.90;;;;;;5033372;28;20176;-64
2023/05/05 12:04:55;;;;;;;7.05;3.85;;;23.00;99.90;;;;;;5031986;28;20127;-64
2023/05/05 12:07:26;;;;;;;6.90;3.67;;;23.10;99.90;;;;;;5033623;28;20021;-64
2023/05/05 12:09:52;;;;;;;6.97;4.30;;;22.90;99.90;;;;;;5033310;28;20098;-64
2023/05/05 12:12:18;;;;;;;4.13;3.50;;;22.80;99.90;;;;;;5032112;28;20044;-64
2023/05/05 12:17:23;;;;;;;6.93;4.40;;;23.10;99.90;;;;;;5111909;27;20362;-65
2023/05/05 12:19:51;;;;;;;5.25;4.22;;;22.90;99.90;;;;;;5111801;28;20363;-65
2023/05/05 12:22:20;;;;;;;5.38;4.25;;;23.00;99.90;;;;;;5110047;28;20052;-65
2023/05/05 12:25:04;;;;;;;7.30;4.47;;;22.90;99.90;;;;;;5111816;28;20039;-65
2023/05/05 12:27:29;;;;;;;9.90;4.38;;;22.60;99.90;;;;;;5110563;28;20350;-65
2023/05/05 12:29:56;;;;;;;7.80;4.25;;;22.70;99.90;;;;;;5111241;28;20065;-64
2023/05/05 12:32:25;;;;;;;4.80;4.10;;;22.70;99.90;;;;;;5111354;28;20020;-64
2023/05/05 12:34:53;;;;;;;7.30;3.63;;;22.70;99.90;;;;;;5110168;28;20470;-65
2023/05/05 12:37:19;;;;;;;6.28;4.35;;;22.60;99.90;;;;;;5110378;28;20019;-64
2023/05/05 12:39:45;;;;;;;4.80;3.25;;;22.40;99.90;;;;;;5111026;28;20023;-64
2023/05/05 12:42:11;;;;;;;9.43;3.65;;;22.50;99.90;;;;;;5110416;28;20016;-65
2023/05/05 12:44:38;;;;;;;5.07;3.42;;;22.50;99.90;;;;;;5110965;28;20070;-65
2023/05/05 12:47:03;;;;;;;4.93;3.83;;;22.60;99.90;;;;;;5109419;28;20028;-64
2023/05/05 12:49:32;;;;;;;4.18;3.63;;;22.60;99.90;;;;;;5108719;28;20028;-65